Time;durP1;ratioP1;P1;durP2;ratioP2;P2;SDS_P1;SDS_P2;PMS_P1;PMS_P2;Temp;Humidity;BMP_temperature;BMP_pressure;BME280_temperature;BME280_humidity;BME280_pressure;Samples;Min_cycle;Max_cycle;Signal;HPM_P1;HPM_P2
2022/01/02 00:01:38;;;;;;;224.55;109.00;;;;;;;4.25;81.65;95023.42;1621148;88;21002;-49
2022/01/02 00:04:05;;;;;;;197.55;99.45;;;;;;;4.25;82.15;95024.78;1616602;88;21031;-50
2022/01/02 00:06:34;;;;;;;188.07;98.03;;;;;;;4.29;82.14;95022.83;1593536;88;21177;-49
2022/01/02 00:09:05;;;;;;;192.70;101.05;;;;;;;4.39;82.37;95036.94;1597796;88;21585;-49
2022/01/02 00:11:32;;;;;;;162.47;89.72;;;;;;;4.49;82.26;95027.93;1615696;88;21113;-49
2022/01/02 00:14:08;;;;;;;149.02;81.63;;;;;;;4.58;82.24;95030.95;1588067;90;20988;-49
2022/01/02 00:16:37;;;;;;;218.80;109.95;;;;;;;4.59;81.69;95037.95;1615521;88;21026;-49
2022/01/02 00:19:19;;;;;;;228.20;110.00;;;;;;;4.45;81.11;95028.52;1587684;89;21805;-49
2022/01/02 00:21:44;;;;;;;168.70;89.30;;;;;;;4.29;81.35;95039.17;1614657;88;21577;-51
2022/01/02 00:24:13;;;;;;;172.47;89.72;;;;;;;4.23;81.47;95035.30;1615976;88;21031;-49
2022/01/02 00:26:43;;;;;;;256.65;126.25;;;;;;;4.13;81.21;95036.16;1615981;88;21043;-50
2022/01/02 00:29:09;;;;;;;218.17;112.30;;;;;;;4.00;81.26;95041.88;1597078;89;20992;-49
2022/01/02 00:31:36;;;;;;;247.58;127.42;;;;;;;3.92;81.91;95044.46;1616298;88;22344;-50
2022/01/02 00:34:04;;;;;;;241.35;115.20;;;;;;;3.88;81.80;95049.13;1615691;88;21055;-50
2022/01/02 00:36:33;;;;;;;211.37;114.12;;;;;;;3.85;81.78;95054.60;1615790;88;21043;-48
2022/01/02 00:39:00;;;;;;;196.25;104.40;;;;;;;3.79;82.11;95062.39;1615979;88;20991;-50
2022/01/02 00:41:54;;;;;;;225.03;117.42;;;;;;;3.82;82.45;95056.16;1615789;88;21016;-50
2022/01/02 00:44:45;;;;;;;216.88;111.47;;;;;;;3.87;82.41;95067.22;1617758;88;21538;-50
2022/01/02 00:47:20;;;;;;;234.80;116.85;;;;;;;3.86;82.29;95055.55;1608651;88;21019;-50
2022/01/02 00:50:00;;;;;;;176.02;96.47;;;;;;;3.83;82.63;95064.51;1596041;88;20971;-49
2022/01/02 00:52:30;;;;;;;212.38;115.37;;;;;;;3.85;82.66;95055.36;1596996;88;21010;-49
2022/01/02 00:54:57;;;;;;;196.63;106.80;;;;;;;3.83;82.55;95061.79;1577403;88;21003;-49
2022/01/02 00:57:31;;;;;;;177.65;99.32;;;;;;;3.88;82.68;95047.00;1615346;88;22415;-50
2022/01/02 01:00:14;;;;;;;179.80;102.38;;;;;;;3.88;82.67;95053.20;1585391;89;20976;-49
2022/01/02 01:02:50;;;;;;;190.15;103.30;;;;;;;3.79;82.51;95051.52;1584504;90;21137;-48
2022/01/02 01:05:27;;;;;;;133.67;79.87;;;;;;;3.73;82.63;95052.31;1568076;91;21063;-48
2022/01/02 01:08:00;;;;;;;139.15;77.65;;;;;;;3.66;82.67;95048.28;1567865;90;21099;-49
2022/01/02 01:10:29;;;;;;;126.95;71.82;;;;;;;3.67;83.01;95051.19;1567834;91;21155;-49
2022/01/02 01:12:59;;;;;;;122.80;69.85;;;;;;;3.70;83.36;95057.95;1568838;91;20999;-49
2022/01/02 01:15:34;;;;;;;130.78;72.27;;;;;;;3.78;83.82;95056.77;1567926;91;21010;-48
2022/01/02 01:18:02;;;;;;;112.22;65.75;;;;;;;3.92;84.18;95052.63;1567728;91;21039;-49
2022/01/02 01:20:40;;;;;;;106.92;61.88;;;;;;;4.01;83.30;95054.31;1567941;90;20998;-48
2022/01/02 01:23:07;;;;;;;98.00;58.55;;;;;;;3.99;83.20;95058.02;1567900;90;21826;-48
2022/01/02 01:25:38;;;;;;;84.22;52.73;;;;;;;4.06;83.05;95057.20;1571531;90;20979;-49
2022/01/02 01:28:05;;;;;;;94.25;56.00;;;;;;;4.05;82.14;95055.05;1549050;91;21059;-49
2022/01/02 01:30:34;;;;;;;94.60;51.08;;;;;;;3.97;82.40;95053.56;1567877;91;21632;-49
2022/01/02 01:33:02;;;;;;;100.30;57.05;;;;;;;3.99;82.53;95049.84;1567767;91;21563;-48
2022/01/02 01:35:29;;;;;;;96.32;59.48;;;;;;;3.95;81.87;95050.46;1529780;91;21097;-49
2022/01/02 01:37:56;;;;;;;87.27;52.73;;;;;;;3.86;81.62;95052.07;1567650;91;20991;-49
2022/01/02 01:40:23;;;;;;;98.40;58.45;;;;;;;3.81;81.50;95066.06;1549315;91;21059;-49
2022/01/02 01:42:57;;;;;;;77.75;48.87;;;;;;;3.80;82.13;95065.88;1549175;90;21085;-49
2022/01/02 01:47:59;;;;;;;98.65;54.30;;;;;;;3.66;81.71;95068.08;1567712;91;21079;-49
2022/01/02 01:50:30;;;;;;;72.62;44.33;;;;;;;3.55;81.99;95067.34;1549531;91;20995;-48
2022/01/02 01:52:57;;;;;;;86.00;50.35;;;;;;;3.52;81.92;95064.05;1567706;90;21475;-49
2022/01/02 01:55:25;;;;;;;81.63;49.98;;;;;;;3.45;82.10;95060.58;1549260;91;21043;-49
2022/01/02 01:57:52;;;;;;;74.87;48.10;;;;;;;3.47;82.45;95067.00;1549417;91;21058;-48
2022/01/02 02:00:21;;;;;;;90.22;49.03;;;;;;;3.47;82.16;95065.64;1568068;91;21138;-48
2022/01/02 02:02:50;;;;;;;76.17;47.17;;;;;;;3.41;82.41;95054.39;1567725;91;21461;-49
2022/01/02 02:05:17;;;;;;;81.53;49.15;;;;;;;3.42;82.46;95067.41;1549362;91;20979;-49
2022/01/02 02:07:47;;;;;;;83.70;48.02;;;;;;;3.32;82.13;95067.63;1567652;91;21039;-49
2022/01/02 02:10:25;;;;;;;85.15;51.33;;;;;;;3.30;82.52;95065.11;1549321;91;21027;-48
2022/01/02 02:12:58;;;;;;;79.90;49.83;;;;;;;3.28;82.54;95064.73;1567705;91;21169;-48
2022/01/02 02:15:26;;;;;;;87.80;50.65;;;;;;;3.25;82.41;95072.31;1568006;91;21495;-49
2022/01/02 02:17:53;;;;;;;90.62;53.02;;;;;;;3.15;82.40;95064.95;1549057;91;21094;-50
2022/01/02 02:20:36;;;;;;;96.02;50.00;;;;;;;3.10;82.55;95070.78;1570366;91;21031;-50
2022/01/02 02:23:05;;;;;;;78.67;48.30;;;;;;;3.13;82.97;95075.44;1568623;91;21046;-49
2022/01/02 02:25:36;;;;;;;59.88;38.55;;;;;;;3.15;82.90;95077.17;1567893;91;21801;-50
2022/01/02 02:28:06;;;;;;;60.05;39.67;;;;;;;3.16;82.97;95076.01;1567625;90;21042;-48
2022/01/02 02:30:36;;;;;;;57.38;38.78;;;;;;;3.18;83.02;95069.59;1568758;90;21042;-49
2022/01/02 02:33:07;;;;;;;182.10;80.20;;;;;;;3.21;82.95;95074.27;1567425;91;21098;-49
2022/01/02 02:35:35;;;;;;;83.22;39.08;;;;;;;3.22;83.29;95077.17;1567794;91;21050;-48
2022/01/02 02:38:03;;;;;;;63.60;37.78;;;;;;;3.25;83.05;95080.47;1567759;91;21530;-50
2022/01/02 02:40:32;;;;;;;65.75;40.50;;;;;;;3.25;82.86;95064.16;1567652;90;21003;-49
2022/01/02 02:43:21;;;;;;;64.77;40.63;;;;;;;3.12;82.43;95061.66;1571553;90;21487;-48
2022/01/02 02:54:29;;;;;;;59.03;37.93;;;;;;;2.89;83.27;95070.83;1569751;91;21086;-49
2022/01/02 02:59:30;;;;;;;52.35;33.10;;;;;;;3.05;83.55;95059.72;1567884;91;20971;-48
2022/01/02 03:01:57;;;;;;;55.23;33.85;;;;;;;3.05;83.29;95075.27;1564329;90;21482;-49
2022/01/02 03:04:27;;;;;;;47.55;29.27;;;;;;;3.01;83.27;95075.83;1567626;90;21157;-48
2022/01/02 03:06:56;;;;;;;48.20;27.52;;;;;;;2.94;83.20;95073.93;1567567;91;21522;-48
2022/01/02 03:09:47;;;;;;;45.12;30.30;;;;;;;2.89;83.44;95078.97;1567665;91;21082;-48
2022/01/02 03:11:57;;;;;;;48.85;29.95;;;;;;;2.90;83.37;95087.31;1566058;90;21096;-49
2022/01/02 03:14:24;;;;;;;37.58;26.45;;;;;;;2.93;83.68;95077.02;1567601;91;21514;-49
2022/01/02 03:16:51;;;;;;;56.35;30.68;;;;;;;2.99;83.46;95068.09;1549110;91;21122;-49
2022/01/02 03:19:18;;;;;;;45.08;27.00;;;;;;;3.00;83.40;95062.84;1564260;91;21482;-48
2022/01/02 03:21:48;;;;;;;46.35;29.72;;;;;;;3.05;83.41;95065.76;1567757;91;21003;-49
2022/01/02 03:24:17;;;;;;;35.23;25.92;;;;;;;3.09;83.32;95078.75;1567771;91;21054;-48
2022/01/02 03:26:44;;;;;;;39.60;25.75;;;;;;;3.13;83.33;95083.59;1567489;91;21051;-49
2022/01/02 03:29:13;;;;;;;33.60;22.35;;;;;;;3.16;83.20;95101.83;1567726;91;21157;-51
2022/01/02 03:31:42;;;;;;;32.90;21.00;;;;;;;3.12;83.01;95101.06;1567466;90;21011;-49
2022/01/02 03:34:11;;;;;;;30.00;19.07;;;;;;;3.01;82.92;95092.14;1567742;91;21003;-50
2022/01/02 03:36:39;;;;;;;31.75;19.20;;;;;;;2.99;83.47;95084.96;1568985;91;21043;-48
2022/01/02 03:39:05;;;;;;;22.27;15.68;;;;;;;3.00;83.60;95088.66;1549088;91;21031;-49
2022/01/02 03:41:32;;;;;;;21.70;16.00;;;;;;;3.06;83.51;95095.24;1564322;91;21175;-49
2022/01/02 03:43:59;;;;;;;29.37;20.10;;;;;;;3.10;83.43;95103.40;1566762;90;21447;-49
2022/01/02 03:46:27;;;;;;;24.77;18.32;;;;;;;3.19;83.84;95094.25;1549057;91;21007;-49
2022/01/02 03:48:58;;;;;;;24.40;16.07;;;;;;;3.27;83.79;95089.77;1567747;91;21038;-48
2022/01/02 03:51:27;;;;;;;29.70;18.87;;;;;;;3.36;83.75;95088.78;1567688;91;21007;-49
2022/01/02 03:53:54;;;;;;;34.20;21.60;;;;;;;3.43;83.28;95088.75;1567789;91;21901;-50
2022/01/02 03:56:21;;;;;;;34.75;23.00;;;;;;;3.43;82.87;95081.20;1567691;90;20991;-49
2022/01/02 03:58:48;;;;;;;34.63;24.15;;;;;;;3.39;82.65;95084.52;1567872;90;21039;-49
2022/01/02 04:01:16;;;;;;;31.40;22.17;;;;;;;3.37;82.33;95080.03;1563796;91;21023;-50
2022/01/02 04:03:46;;;;;;;37.83;24.50;;;;;;;3.31;82.15;95076.17;1549181;91;21012;-49
2022/01/02 04:06:14;;;;;;;42.73;26.12;;;;;;;3.25;82.30;95080.47;1567998;91;21897;-50
2022/01/02 04:08:42;;;;;;;39.20;27.48;;;;;;;3.32;82.68;95077.72;1549228;91;21090;-48
2022/01/02 04:11:11;;;;;;;33.33;22.75;;;;;;;3.34;82.33;95086.25;1567928;91;21046;-49
2022/01/02 04:13:38;;;;;;;20.32;15.58;;;;;;;3.32;82.94;95091.31;1567097;91;21039;-49
2022/01/02 04:16:05;;;;;;;30.32;21.52;;;;;;;3.34;82.23;95094.41;1567779;90;21042;-48
2022/01/02 04:18:32;;;;;;;42.33;27.82;;;;;;;3.29;82.17;95099.69;1567955;91;21168;-49
2022/01/02 04:20:59;;;;;;;36.75;23.00;;;;;;;3.30;82.23;95105.89;1567572;91;21507;-49
2022/01/02 04:23:28;;;;;;;24.92;18.48;;;;;;;3.29;82.24;95100.26;1567920;90;21050;-48
2022/01/02 04:25:57;;;;;;;26.33;18.23;;;;;;;3.29;82.26;95095.61;1568114;91;21486;-50
2022/01/02 04:28:25;;;;;;;26.25;17.90;;;;;;;3.22;81.84;95092.13;1567883;91;21103;-49
2022/01/02 04:30:52;;;;;;;30.02;19.37;;;;;;;3.12;81.95;95092.34;1567983;91;21574;-48
2022/01/02 04:33:19;;;;;;;38.13;23.07;;;;;;;3.13;82.16;95097.17;1567674;91;21035;-51
2022/01/02 04:35:46;;;;;;;24.87;17.60;;;;;;;3.18;82.56;95097.56;1567780;91;21017;-49
2022/01/02 04:38:14;;;;;;;37.95;18.70;;;;;;;3.29;83.05;95088.81;1568912;91;20987;-49
2022/01/02 04:40:42;;;;;;;30.48;17.98;;;;;;;3.48;82.99;95093.21;1583690;90;21630;-50
2022/01/02 04:43:09;;;;;;;31.23;18.05;;;;;;;3.63;82.54;95101.52;1615795;88;21180;-48
2022/01/02 04:45:37;;;;;;;19.73;14.73;;;;;;;3.75;82.07;95109.26;1615736;88;20960;-49
2022/01/02 04:48:04;;;;;;;16.70;11.55;;;;;;;3.74;80.94;95119.95;1598159;88;21086;-50
2022/01/02 04:50:32;;;;;;;57.60;35.20;;;;;;;3.62;80.44;95112.78;1615830;88;21101;-48
2022/01/02 04:52:59;;;;;;;37.17;22.67;;;;;;;3.44;80.36;95123.53;1598220;88;21448;-49
2022/01/02 04:55:29;;;;;;;21.93;15.98;;;;;;;3.31;81.05;95123.17;1585332;90;21883;-49
2022/01/02 04:57:56;;;;;;;29.82;16.57;;;;;;;3.32;81.09;95114.42;1585129;90;21027;-49
2022/01/02 05:00:24;;;;;;;22.60;15.03;;;;;;;3.28;81.08;95119.09;1584238;89;21043;-49
2022/01/02 05:02:53;;;;;;;25.02;16.67;;;;;;;3.26;80.97;95117.36;1585059;89;21580;-48
2022/01/02 05:05:20;;;;;;;23.65;17.40;;;;;;;3.18;80.74;95119.88;1585756;89;21027;-49
2022/01/02 05:07:47;;;;;;;28.70;17.10;;;;;;;3.18;81.47;95118.52;1615778;88;21152;-49
2022/01/02 05:10:13;;;;;;;26.35;17.67;;;;;;;3.26;81.47;95128.23;1597875;88;21046;-48
2022/01/02 05:12:44;;;;;;;25.12;16.25;;;;;;;3.32;81.38;95122.01;1566250;90;21031;-50
2022/01/02 05:15:12;;;;;;;25.50;14.53;;;;;;;3.32;80.87;95132.09;1584982;90;20979;-49
2022/01/02 05:17:41;;;;;;;24.35;15.90;;;;;;;3.33;80.95;95139.08;1586401;88;21362;-48
2022/01/02 05:20:11;;;;;;;25.62;16.70;;;;;;;3.24;80.91;95138.13;1615823;88;21823;-48
2022/01/02 05:22:39;;;;;;;20.95;14.98;;;;;;;3.24;80.99;95128.61;1619842;88;20984;-49
2022/01/02 05:25:08;;;;;;;20.37;13.70;;;;;;;3.23;81.03;95130.37;1567772;90;20998;-50
2022/01/02 05:27:36;;;;;;;29.05;17.62;;;;;;;3.22;80.95;95132.30;1567893;91;20995;-49
2022/01/02 05:30:05;;;;;;;31.52;18.37;;;;;;;3.16;81.09;95127.08;1549197;90;21090;-50
2022/01/02 05:32:35;;;;;;;24.82;16.35;;;;;;;3.20;81.14;95129.80;1549056;91;21041;-49
2022/01/02 05:35:03;;;;;;;23.30;15.10;;;;;;;3.19;81.05;95131.73;1549120;91;21534;-48
2022/01/02 05:37:30;;;;;;;22.05;14.53;;;;;;;3.15;81.07;95136.41;1567701;90;21000;-51
2022/01/02 05:40:01;;;;;;;21.30;14.35;;;;;;;3.17;81.14;95141.44;1567720;91;20991;-49
2022/01/02 05:42:30;;;;;;;22.48;13.90;;;;;;;3.15;81.20;95137.76;1567964;91;21066;-49
2022/01/02 05:44:57;;;;;;;18.98;14.03;;;;;;;3.20;81.62;95137.95;1549236;91;21142;-51
2022/01/02 05:47:23;;;;;;;23.98;13.70;;;;;;;3.26;81.37;95135.03;1564398;90;21050;-49
2022/01/02 05:49:53;;;;;;;22.17;13.95;;;;;;;3.26;81.13;95137.74;1567924;91;21003;-49
2022/01/02 05:52:20;;;;;;;22.10;13.58;;;;;;;3.23;80.95;95138.53;1564471;90;21061;-49
2022/01/02 05:54:47;;;;;;;22.98;14.28;;;;;;;3.20;80.97;95137.36;1567682;91;21011;-50
2022/01/02 05:57:17;;;;;;;19.35;14.25;;;;;;;3.22;80.96;95128.23;1567704;91;21117;-48
2022/01/02 05:59:45;;;;;;;19.48;13.83;;;;;;;3.19;80.92;95123.58;1569048;91;21094;-49
2022/01/02 06:02:12;;;;;;;26.93;14.87;;;;;;;3.18;80.82;95121.23;1567861;91;21549;-48
2022/01/02 06:04:41;;;;;;;22.93;14.07;;;;;;;3.17;80.78;95116.97;1567721;90;21490;-48
2022/01/02 06:07:11;;;;;;;14.65;10.80;;;;;;;3.11;80.77;95104.95;1567701;91;21011;-50
2022/01/02 06:09:43;;;;;;;26.25;16.57;;;;;;;3.05;80.86;95111.95;1568159;91;21138;-50
2022/01/02 06:12:12;;;;;;;20.75;13.95;;;;;;;3.04;81.28;95114.48;1567703;91;21040;-49
2022/01/02 06:14:39;;;;;;;22.27;14.85;;;;;;;3.11;81.11;95113.89;1569877;90;20999;-48
2022/01/02 06:17:06;;;;;;;21.27;14.50;;;;;;;3.13;81.17;95115.63;1564525;91;21015;-50
2022/01/02 06:19:33;;;;;;;19.70;13.83;;;;;;;3.23;81.51;95129.02;1567765;91;21083;-49
2022/01/02 06:22:01;;;;;;;21.77;13.03;;;;;;;3.26;81.00;95122.80;1567732;91;21127;-48
2022/01/02 06:24:28;;;;;;;20.00;12.45;;;;;;;3.26;81.03;95120.08;1567643;90;21004;-49
2022/01/02 06:26:55;;;;;;;18.85;12.88;;;;;;;3.35;81.30;95113.63;1549410;91;21598;-49
2022/01/02 06:29:23;;;;;;;17.75;11.78;;;;;;;3.37;80.55;95112.66;1567840;91;21055;-49
2022/01/02 06:31:50;;;;;;;19.70;13.22;;;;;;;3.39;80.85;95113.06;1574099;90;21061;-49
2022/01/02 06:34:19;;;;;;;20.12;12.88;;;;;;;3.51;80.98;95114.17;1567723;90;21171;-49
2022/01/02 06:36:47;;;;;;;21.80;14.28;;;;;;;3.60;80.39;95111.05;1568908;91;21078;-50
2022/01/02 06:39:13;;;;;;;16.35;11.38;;;;;;;3.68;80.32;95116.66;1546584;91;21054;-49
2022/01/02 06:41:40;;;;;;;21.55;13.50;;;;;;;3.79;79.89;95119.53;1567876;91;21458;-49
2022/01/02 06:44:08;;;;;;;18.15;12.23;;;;;;;3.77;79.24;95128.68;1567738;90;21039;-49
2022/01/02 06:46:36;;;;;;;22.32;12.15;;;;;;;3.70;79.03;95136.09;1564326;91;20991;-49
2022/01/02 06:49:03;;;;;;;20.70;13.20;;;;;;;3.60;78.82;95133.59;1567706;90;21087;-49
2022/01/02 06:51:30;;;;;;;23.87;13.38;;;;;;;3.49;79.11;95142.35;1567731;90;21014;-50
2022/01/02 06:53:58;;;;;;;32.17;18.55;;;;;;;3.49;79.48;95133.44;1567680;91;21466;-49
2022/01/02 06:56:24;;;;;;;33.73;19.42;;;;;;;3.55;79.82;95143.49;1567987;91;21030;-49
2022/01/02 06:58:53;;;;;;;45.03;22.67;;;;;;;3.63;80.07;95134.16;1567922;91;21563;-50
2022/01/02 07:01:20;;;;;;;40.40;22.95;;;;;;;3.79;80.23;95137.80;1567833;90;20978;-50
2022/01/02 07:03:47;;;;;;;59.88;31.75;;;;;;;3.90;79.50;95135.22;1567726;91;21213;-50
2022/01/02 07:06:15;;;;;;;36.93;21.68;;;;;;;3.96;79.43;95135.02;1567691;91;21544;-49
2022/01/02 07:08:44;;;;;;;64.85;27.60;;;;;;;4.03;78.84;95134.98;1567744;91;21050;-49
2022/01/02 07:11:12;;;;;;;50.80;24.70;;;;;;;4.02;79.16;95133.43;1567642;90;21034;-49
2022/01/02 07:13:40;;;;;;;45.28;23.57;;;;;;;4.13;79.04;95131.45;1568815;91;20990;-49
2022/01/02 07:16:10;;;;;;;41.70;22.35;;;;;;;4.17;78.34;95133.56;1568888;91;21463;-48
2022/01/02 07:18:38;;;;;;;40.30;22.32;;;;;;;4.18;78.42;95128.30;1567016;91;21043;-49
2022/01/02 07:21:06;;;;;;;58.78;30.12;;;;;;;4.26;78.13;95139.33;1549082;91;21046;-49
2022/01/02 07:23:33;;;;;;;52.40;28.30;;;;;;;4.28;77.60;95139.70;1567827;91;21201;-49
2022/01/02 07:26:00;;;;;;;67.05;31.35;;;;;;;4.24;77.29;95140.31;1564281;91;21036;-49
2022/01/02 07:28:29;;;;;;;61.98;32.10;;;;;;;4.17;77.66;95136.28;1572769;90;21459;-49
2022/01/02 07:30:58;;;;;;;53.35;27.00;;;;;;;4.18;77.83;95137.04;1567756;91;21133;-49
2022/01/02 07:33:26;;;;;;;47.08;26.40;;;;;;;4.17;77.57;95145.81;1567818;91;21032;-50
2022/01/02 07:35:56;;;;;;;50.55;27.35;;;;;;;4.20;78.12;95134.12;1569049;91;21035;-50
2022/01/02 07:38:23;;;;;;;52.60;28.77;;;;;;;4.34;78.13;95131.91;1569023;91;21597;-50
2022/01/02 07:40:50;;;;;;;48.60;28.17;;;;;;;4.47;77.54;95131.06;1568146;91;20999;-49
2022/01/02 07:43:16;;;;;;;54.53;29.12;;;;;;;4.54;77.37;95129.65;1567890;90;21015;-49
2022/01/02 07:45:48;;;;;;;50.25;27.30;;;;;;;4.58;76.98;95125.55;1568084;91;21046;-50
2022/01/02 07:48:14;;;;;;;52.17;27.50;;;;;;;4.55;76.79;95126.32;1566358;90;21197;-49
2022/01/02 07:50:44;;;;;;;37.15;21.75;;;;;;;4.45;76.68;95127.94;1568049;91;21007;-49
2022/01/02 07:53:10;;;;;;;35.68;20.92;;;;;;;4.47;77.24;95122.89;1546640;91;21004;-49
2022/01/02 07:55:37;;;;;;;39.03;21.30;;;;;;;4.49;77.19;95112.95;1547518;91;21007;-50
2022/01/02 07:58:04;;;;;;;32.10;17.67;;;;;;;4.58;77.01;95118.73;1578206;90;21207;-52
2022/01/02 08:00:31;;;;;;;28.20;17.62;;;;;;;4.63;76.34;95119.67;1599155;88;21206;-50
2022/01/02 08:02:59;;;;;;;33.25;20.00;;;;;;;4.61;76.11;95120.05;1616106;88;20980;-50
2022/01/02 08:05:26;;;;;;;43.17;23.40;;;;;;;4.60;76.59;95122.59;1597780;88;21495;-49
2022/01/02 08:07:53;;;;;;;37.53;21.02;;;;;;;4.69;76.80;95122.94;1615912;88;21022;-50
2022/01/02 08:10:20;;;;;;;37.10;22.07;;;;;;;4.78;76.22;95112.34;1615821;88;20999;-49
2022/01/02 08:12:47;;;;;;;39.67;22.80;;;;;;;4.77;75.81;95113.52;1585271;90;21145;-50
2022/01/02 08:15:14;;;;;;;37.75;23.20;;;;;;;4.76;75.81;95118.78;1567655;90;21544;-50
2022/01/02 08:17:41;;;;;;;46.00;25.95;;;;;;;4.79;75.69;95120.70;1585825;89;21047;-51
2022/01/02 08:20:09;;;;;;;42.10;25.72;;;;;;;4.90;75.92;95118.68;1567744;90;20991;-50
2022/01/02 08:22:39;;;;;;;40.38;25.32;;;;;;;5.07;75.72;95119.12;1567736;90;21583;-51
2022/01/02 08:25:10;;;;;;;41.73;26.97;;;;;;;5.18;74.87;95122.52;1568038;91;21566;-49
2022/01/02 08:27:37;;;;;;;30.97;20.15;;;;;;;5.23;74.68;95128.31;1567655;91;20987;-50
2022/01/02 08:30:07;;;;;;;50.17;27.32;;;;;;;5.35;74.33;95125.10;1567907;90;21527;-50
2022/01/02 08:32:36;;;;;;;57.53;31.17;;;;;;;5.38;73.90;95127.62;1567729;91;21062;-50
2022/01/02 08:35:07;;;;;;;40.08;24.52;;;;;;;5.36;73.63;95134.05;1556186;91;21547;-50
2022/01/02 08:37:34;;;;;;;43.83;28.90;;;;;;;5.39;73.14;95129.16;1569812;91;21564;-50
2022/01/02 08:40:01;;;;;;;53.05;30.88;;;;;;;5.33;73.11;95115.76;1567699;91;20994;-50
2022/01/02 08:42:28;;;;;;;43.48;24.98;;;;;;;5.37;73.23;95121.95;1567815;91;21042;-51
2022/01/02 08:44:55;;;;;;;54.20;31.07;;;;;;;5.42;72.80;95122.29;1567696;91;21046;-48
2022/01/02 08:47:22;;;;;;;61.60;37.38;;;;;;;5.34;72.49;95120.03;1564546;91;21090;-49
2022/01/02 08:49:49;;;;;;;51.30;30.62;;;;;;;5.33;73.22;95109.73;1567835;91;21803;-50
2022/01/02 08:52:16;;;;;;;41.90;25.57;;;;;;;5.43;72.81;95118.38;1567699;91;21015;-50
2022/01/02 08:54:43;;;;;;;46.23;26.80;;;;;;;5.44;72.83;95120.53;1567743;91;21054;-50
2022/01/02 08:57:13;;;;;;;38.08;24.60;;;;;;;5.49;72.58;95114.63;1548950;91;20995;-49
2022/01/02 08:59:40;;;;;;;39.30;24.52;;;;;;;5.64;72.96;95101.02;1567742;90;21003;-52
2022/01/02 09:02:10;;;;;;;31.45;21.23;;;;;;;5.85;72.66;95100.81;1567791;91;21207;-50
2022/01/02 09:04:36;;;;;;;32.15;21.85;;;;;;;6.11;72.00;95090.52;1567692;90;21555;-50
2022/01/02 09:07:04;;;;;;;29.75;20.70;;;;;;;6.40;71.79;95087.02;1567737;89;21110;-50
2022/01/02 09:09:33;;;;;;;32.50;20.85;;;;;;;6.81;71.49;95081.32;1567772;90;21031;-50
2022/01/02 09:12:00;;;;;;;35.03;21.65;;;;;;;7.22;69.75;95082.01;1567777;91;21524;-50
2022/01/02 09:14:28;;;;;;;31.65;20.32;;;;;;;7.33;68.48;95084.56;1567753;91;21891;-51
2022/01/02 09:16:55;;;;;;;30.20;21.93;;;;;;;7.26;67.89;95085.45;1568837;91;21127;-51
2022/01/02 09:19:21;;;;;;;36.38;23.87;;;;;;;7.15;67.87;95080.74;1567691;90;21128;-52
2022/01/02 09:21:52;;;;;;;39.05;25.17;;;;;;;7.11;67.62;95074.56;1567702;91;21055;-50
2022/01/02 09:24:18;;;;;;;38.80;25.15;;;;;;;7.03;67.58;95071.61;1567814;90;20998;-49
2022/01/02 09:26:45;;;;;;;27.62;20.80;;;;;;;6.91;67.82;95066.11;1567817;91;21161;-49
2022/01/02 09:29:12;;;;;;;33.65;23.87;;;;;;;6.86;67.90;95061.73;1548753;91;21159;-50
2022/01/02 09:31:42;;;;;;;40.55;25.52;;;;;;;6.83;67.67;95068.79;1567606;91;21188;-49
2022/01/02 09:34:08;;;;;;;39.40;25.75;;;;;;;6.71;67.83;95071.34;1567643;91;21047;-49
2022/01/02 09:36:36;;;;;;;39.73;25.85;;;;;;;6.68;68.05;95067.46;1567695;91;21098;-50
2022/01/02 09:39:06;;;;;;;50.45;32.38;;;;;;;6.75;68.12;95059.17;1567720;91;21157;-51
2022/01/02 09:41:34;;;;;;;49.35;32.28;;;;;;;6.87;68.16;95053.09;1571296;90;21070;-50
2022/01/02 09:44:03;;;;;;;59.55;38.23;;;;;;;7.03;67.79;95060.67;1548841;91;20975;-49
2022/01/02 09:46:30;;;;;;;57.15;35.52;;;;;;;7.16;67.70;95044.59;1568572;91;21015;-50
2022/01/02 09:49:05;;;;;;;53.90;33.83;;;;;;;7.40;67.39;95044.16;1567794;91;21047;-50
2022/01/02 09:51:32;;;;;;;60.25;37.63;;;;;;;7.58;66.23;95039.12;1567736;91;21165;-50
2022/01/02 09:53:59;;;;;;;57.70;35.20;;;;;;;7.69;66.27;95030.08;1564158;91;20987;-49
2022/01/02 09:56:25;;;;;;;46.60;29.95;;;;;;;7.82;65.51;95021.41;1564636;90;21042;-51
2022/01/02 09:58:57;;;;;;;57.20;35.78;;;;;;;7.83;65.56;95017.48;1567789;91;21590;-50
2022/01/02 10:01:25;;;;;;;51.10;33.35;;;;;;;7.92;65.37;95014.92;1567616;90;21070;-50
2022/01/02 10:03:56;;;;;;;50.45;33.67;;;;;;;7.99;65.14;95011.27;1564306;90;21134;-50
2022/01/02 10:06:39;;;;;;;69.07;45.78;;;;;;;8.07;65.28;95012.06;1569999;89;21075;-52
2022/01/02 10:09:23;;;;;;;66.02;39.48;;;;;;;7.99;64.82;95002.47;1588077;90;21574;-50
2022/01/02 10:11:50;;;;;;;70.52;43.55;;;;;;;7.98;65.25;94998.19;1589813;88;21030;-50
2022/01/02 10:14:16;;;;;;;62.40;40.20;;;;;;;8.45;64.62;94997.36;1625434;86;21144;-51
2022/01/02 10:16:45;;;;;;;67.37;44.73;;;;;;;9.07;63.86;94988.93;1624422;87;21111;-50
2022/01/02 10:19:32;;;;;;;62.23;41.73;;;;;;;9.73;62.29;94988.31;1624472;87;21163;-51
2022/01/02 10:22:05;;;;;;;58.83;38.67;;;;;;;10.33;60.39;94977.75;1624664;87;21443;-51
2022/01/02 10:24:37;;;;;;;58.78;40.45;;;;;;;10.60;59.44;94980.81;1624738;87;21105;-49
2022/01/02 10:27:11;;;;;;;56.08;38.20;;;;;;;10.93;57.79;94972.63;1624484;87;21087;-49
2022/01/02 10:29:44;;;;;;;60.58;38.48;;;;;;;10.94;57.07;94963.75;1624794;87;21120;-50
2022/01/02 10:32:34;;;;;;;60.85;39.40;;;;;;;10.97;57.06;94965.02;1624464;87;21033;-51
2022/01/02 10:35:14;;;;;;;59.55;37.95;;;;;;;11.09;57.22;94962.84;1624540;87;21019;-51
2022/01/02 10:37:54;;;;;;;59.15;40.80;;;;;;;11.44;56.79;94958.09;1624532;88;20987;-52
2022/01/02 10:40:36;;;;;;;63.15;42.17;;;;;;;11.92;56.00;94950.04;1624607;87;21004;-51
2022/01/02 10:43:26;;;;;;;61.63;40.65;;;;;;;12.52;54.76;94949.11;1624580;88;21249;-51
2022/01/02 10:45:57;;;;;;;60.63;40.67;;;;;;;12.78;53.66;94929.89;1624440;87;21051;-52
2022/01/02 10:48:37;;;;;;;58.28;39.08;;;;;;;12.95;52.94;94926.27;1624624;87;21081;-51
2022/01/02 10:51:14;;;;;;;54.65;37.98;;;;;;;13.16;52.04;94922.61;1624889;87;21012;-50
2022/01/02 10:53:53;;;;;;;60.65;42.33;;;;;;;13.24;51.06;94916.95;1624894;87;21054;-50
2022/01/02 10:56:26;;;;;;;72.47;50.75;;;;;;;13.26;50.87;94906.20;1624827;87;21121;-50
2022/01/02 10:58:52;;;;;;;;;;;;;;;13.21;50.84;94895.75;1626978;88;21566;-51
2022/01/02 11:01:19;;;;;;;67.82;46.05;;;;;;;13.14;50.86;94894.68;1624773;87;21028;-51
2022/01/02 11:03:49;;;;;;;68.05;46.53;;;;;;;13.14;50.77;94893.30;1624573;87;20980;-50
2022/01/02 11:06:30;;;;;;;71.12;46.23;;;;;;;13.07;51.09;94886.08;1624496;87;21039;-49
2022/01/02 11:08:58;;;;;;;63.45;44.38;;;;;;;13.24;51.04;94881.03;1624758;88;21170;-50
2022/01/02 11:11:25;;;;;;;56.33;40.33;;;;;;;13.50;50.37;94878.09;1624452;87;21613;-52
2022/01/02 11:13:52;;;;;;;52.67;37.38;;;;;;;13.62;49.80;94868.88;1624687;87;22229;-51
2022/01/02 11:16:19;;;;;;;45.75;31.93;;;;;;;13.54;49.87;94860.73;1624543;87;20987;-53
2022/01/02 11:18:47;;;;;;;47.67;34.65;;;;;;;13.65;49.69;94863.16;1624563;87;21027;-52
2022/01/02 11:21:13;;;;;;;54.70;39.05;;;;;;;13.78;49.49;94852.70;1624511;87;21305;-51
2022/01/02 11:24:12;;;;;;;58.75;41.13;;;;;;;13.62;49.27;94845.38;1624502;87;21114;-51
2022/01/02 11:27:09;;;;;;;68.17;42.83;;;;;;;13.28;49.95;94848.48;1624665;87;21011;-51
2022/01/02 11:29:36;;;;;;;73.02;47.70;;;;;;;13.15;50.55;94840.97;1624184;87;21023;-51
2022/01/02 11:32:22;;;;;;;62.65;42.85;;;;;;;13.48;50.07;94832.94;1613571;88;21499;-50
2022/01/02 11:34:50;;;;;;;59.85;42.75;;;;;;;13.74;49.77;94833.34;1624541;87;21354;-50
2022/01/02 11:37:25;;;;;;;68.12;46.18;;;;;;;13.88;49.34;94829.33;1635002;87;20968;-50
2022/01/02 11:40:08;;;;;;;70.00;44.60;;;;;;;14.04;49.08;94819.89;1624672;87;21156;-50
2022/01/02 11:42:42;;;;;;;65.00;43.95;;;;;;;14.25;48.29;94806.45;1613809;88;21534;-51
2022/01/02 11:45:31;;;;;;;62.50;41.90;;;;;;;14.45;47.92;94798.48;1624590;88;21094;-50
2022/01/02 11:48:00;;;;;;;57.27;39.95;;;;;;;14.88;47.15;94798.51;1624753;87;21833;-52